createdAt,value
2019-04-04T00:00:08.198Z,14.17
2019-04-04T00:02:40.730Z,14.37
2019-04-04T00:05:13.099Z,16.33
2019-04-04T00:07:45.349Z,12.87
2019-04-04T00:10:17.520Z,13.43
2019-04-04T00:12:49.877Z,14.93
2019-04-04T00:15:22.139Z,15.87
2019-04-04T00:17:54.553Z,12.17
2019-04-04T00:20:26.831Z,14.97
2019-04-04T00:23:00.052Z,12.60
2019-04-04T00:25:32.864Z,11.63
2019-04-04T00:28:05.162Z,13.67
2019-04-04T00:30:37.697Z,13.47
2019-04-04T00:33:09.911Z,14.37
2019-04-04T00:35:42.157Z,14.10
2019-04-04T00:38:14.441Z,11.97
2019-04-04T00:40:46.701Z,11.67
2019-04-04T00:43:21.093Z,11.07
2019-04-04T00:45:52.977Z,15.07
2019-04-04T00:48:25.199Z,12.43
2019-04-04T00:50:57.420Z,12.30
2019-04-04T00:53:29.680Z,14.57
2019-04-04T00:56:01.874Z,12.17
2019-04-04T00:58:35.209Z,11.87
2019-04-04T01:01:07.447Z,13.37
2019-04-04T01:03:40.019Z,12.83
2019-04-04T01:06:14.474Z,12.67
2019-04-04T01:08:48.252Z,11.97
2019-04-04T01:11:21.002Z,11.97
2019-04-04T01:13:53.401Z,10.93
2019-04-04T01:16:25.651Z,10.77
2019-04-04T01:18:57.890Z,13.80
2019-04-04T01:21:30.131Z,14.27
2019-04-04T01:24:02.405Z,11.00
2019-04-04T01:26:35.736Z,13.63
2019-04-04T01:29:10.149Z,15.37
2019-04-04T01:31:42.181Z,15.43
2019-04-04T01:34:16.435Z,11.03
2019-04-04T01:36:48.723Z,12.30
2019-04-04T01:39:20.932Z,12.13
2019-04-04T01:41:53.166Z,12.37
2019-04-04T01:44:25.454Z,13.67
2019-04-04T01:46:57.680Z,14.20
2019-04-04T01:49:29.947Z,14.40
2019-04-04T01:52:02.254Z,13.40
2019-04-04T01:54:34.628Z,15.17
2019-04-04T01:57:09.182Z,16.87
2019-04-04T01:59:43.933Z,14.40
2019-04-04T02:02:18.466Z,14.67
2019-04-04T02:04:50.461Z,12.73
2019-04-04T02:07:22.747Z,16.53
2019-04-04T02:09:54.783Z,14.20
2019-04-04T02:12:27.027Z,11.80
2019-04-04T02:14:59.219Z,14.80
2019-04-04T02:17:31.466Z,13.13
2019-04-04T02:20:03.883Z,12.20
2019-04-04T02:22:36.282Z,16.67
2019-04-04T02:25:08.526Z,12.67
2019-04-04T02:27:40.833Z,12.77
2019-04-04T02:30:16.004Z,13.77
2019-04-04T02:32:47.147Z,14.33
2019-04-04T02:35:19.353Z,12.97
2019-04-04T02:37:55.060Z,14.47
2019-04-04T02:40:25.581Z,14.30
2019-04-04T02:42:58.063Z,12.90
2019-04-04T02:45:30.293Z,14.93
2019-04-04T02:48:02.663Z,11.63
2019-04-04T02:50:35.914Z,14.07
2019-04-04T02:53:08.306Z,12.17
2019-04-04T02:55:40.509Z,11.87
2019-04-04T02:58:14.995Z,15.43
2019-04-04T03:00:46.702Z,13.07
2019-04-04T03:03:19.030Z,12.63
2019-04-04T03:05:52.317Z,12.13
2019-04-04T03:08:24.912Z,13.90
2019-04-04T03:10:57.332Z,12.63
2019-04-04T03:13:32.175Z,14.73
2019-04-04T03:16:03.542Z,11.80
2019-04-04T03:18:37.322Z,12.27
2019-04-04T03:21:09.750Z,12.97
2019-04-04T03:23:42.036Z,11.50
2019-04-04T03:26:14.352Z,12.27
2019-04-04T03:28:48.213Z,11.40
2019-04-04T03:31:20.538Z,12.80
2019-04-04T03:33:52.820Z,13.37
2019-04-04T03:36:25.305Z,12.27
2019-04-04T03:38:59.806Z,15.53
2019-04-04T03:41:35.785Z,13.00
2019-04-04T03:44:06.368Z,12.30
2019-04-04T03:46:39.198Z,13.53
2019-04-04T03:49:11.516Z,12.90
2019-04-04T03:51:43.841Z,14.63
2019-04-04T03:54:16.136Z,15.20
2019-04-04T03:56:48.321Z,14.27
2019-04-04T03:59:20.610Z,13.80
2019-04-04T04:01:52.819Z,15.37
2019-04-04T04:04:28.303Z,11.87
2019-04-04T04:06:59.220Z,15.50
2019-04-04T04:09:31.454Z,14.60
2019-04-04T04:12:03.658Z,14.17
2019-04-04T04:14:37.080Z,14.73
2019-04-04T04:17:11.587Z,14.47
2019-04-04T04:19:43.271Z,13.60
2019-04-04T04:22:18.047Z,15.03
2019-04-04T04:24:49.447Z,13.80
2019-04-04T04:27:21.692Z,16.10
2019-04-04T04:29:53.920Z,15.53
2019-04-04T04:32:28.477Z,17.97
2019-04-04T04:35:00.746Z,15.13
2019-04-04T04:37:32.952Z,17.77
2019-04-04T04:40:05.280Z,14.77
2019-04-04T04:42:37.494Z,15.53
2019-04-04T04:45:12.153Z,13.83
2019-04-04T04:47:43.982Z,17.17
2019-04-04T04:50:16.436Z,16.33
2019-04-04T04:52:48.710Z,15.77
2019-04-04T04:55:20.955Z,18.47
2019-04-04T04:57:56.089Z,16.87
2019-04-04T05:00:27.871Z,16.90
2019-04-04T05:03:00.506Z,18.90
2019-04-04T05:05:32.748Z,20.57
2019-04-04T05:08:04.995Z,16.03
2019-04-04T05:10:37.199Z,16.73
2019-04-04T05:13:09.526Z,16.73
2019-04-04T05:15:41.725Z,16.17
2019-04-04T05:18:16.416Z,15.73
2019-04-04T05:20:48.113Z,17.60
2019-04-04T05:23:20.419Z,14.97
2019-04-04T05:25:54.313Z,16.73
2019-04-04T05:28:26.787Z,19.10
2019-04-04T05:30:59.209Z,14.57
2019-04-04T05:33:31.756Z,16.43
2019-04-04T05:36:05.271Z,17.00
2019-04-04T05:38:37.962Z,15.97
2019-04-04T05:41:10.157Z,15.53
2019-04-04T05:43:42.471Z,15.00
2019-04-04T05:46:14.747Z,15.90
2019-04-04T05:48:47.227Z,15.13
2019-04-04T05:51:19.489Z,17.73
2019-04-04T05:53:51.892Z,13.63
2019-04-04T05:56:24.510Z,16.70
2019-04-04T05:58:57.925Z,15.07
2019-04-04T06:01:30.527Z,15.90
2019-04-04T06:04:04.118Z,19.63
2019-04-04T06:06:36.781Z,12.97
2019-04-04T06:09:09.034Z,15.73
2019-04-04T06:11:41.358Z,14.20
2019-04-04T06:14:13.631Z,14.43
2019-04-04T06:16:46.000Z,13.30
2019-04-04T06:19:18.466Z,14.90
2019-04-04T06:21:50.805Z,12.63
2019-04-04T06:24:23.379Z,16.70
2019-04-04T06:26:57.846Z,14.43
2019-04-04T06:29:30.012Z,14.73
2019-04-04T06:32:02.252Z,14.47
2019-04-04T06:34:34.541Z,16.97
2019-04-04T06:37:06.941Z,15.23
2019-04-04T06:39:39.296Z,16.30
2019-04-04T06:42:11.946Z,16.07
2019-04-04T06:44:44.486Z,16.07
2019-04-04T06:47:16.760Z,15.43
2019-04-04T06:49:49.357Z,13.43
2019-04-04T06:52:23.411Z,13.77
2019-04-04T06:54:57.389Z,17.13
2019-04-04T06:57:30.240Z,16.03
2019-04-04T07:00:02.704Z,20.30
2019-04-04T07:02:35.369Z,11.63
2019-04-04T07:05:10.448Z,14.10
2019-04-04T07:07:43.873Z,13.40
2019-04-04T07:10:15.738Z,12.90
2019-04-04T07:12:49.019Z,16.23
2019-04-04T07:15:21.339Z,11.90
2019-04-04T07:17:53.735Z,12.37
2019-04-04T07:20:28.315Z,11.40
2019-04-04T07:22:59.959Z,19.87
2019-04-04T07:25:32.333Z,11.73
2019-04-04T07:28:04.814Z,12.73
2019-04-04T07:30:37.466Z,11.43
2019-04-04T07:33:11.845Z,12.00
2019-04-04T07:35:43.790Z,16.83
2019-04-04T07:38:16.061Z,12.47
2019-04-04T07:40:49.743Z,18.77
2019-04-04T07:43:22.008Z,12.97
2019-04-04T07:45:59.664Z,11.00
2019-04-04T07:48:29.502Z,12.83
2019-04-04T07:51:01.893Z,14.40
2019-04-04T07:53:36.316Z,15.67
2019-04-04T07:56:08.243Z,12.07
2019-04-04T07:58:40.356Z,11.60
2019-04-04T08:01:12.610Z,11.03
2019-04-04T08:03:44.964Z,12.07
2019-04-04T08:06:17.670Z,9.60
2019-04-04T08:08:50.058Z,10.20
2019-04-04T08:11:22.410Z,12.83
2019-04-04T08:13:55.685Z,10.97
2019-04-04T08:16:28.038Z,10.20
2019-04-04T08:19:00.378Z,11.93
2019-04-04T08:21:32.697Z,10.10
2019-04-04T08:24:04.957Z,11.67
2019-04-04T08:26:37.159Z,10.70
2019-04-04T08:29:09.493Z,11.20
2019-04-04T08:31:41.783Z,11.33
2019-04-04T08:34:16.508Z,11.90
2019-04-04T08:36:48.782Z,11.97
2019-04-04T08:39:21.025Z,12.47
2019-04-04T08:41:53.322Z,13.03
2019-04-04T08:44:25.600Z,12.23
2019-04-04T08:46:57.813Z,11.73
2019-04-04T08:49:30.129Z,11.47
2019-04-04T08:52:02.376Z,13.70
2019-04-04T08:54:34.603Z,10.47
2019-04-04T08:57:07.065Z,15.43
2019-04-04T08:59:39.477Z,11.97
2019-04-04T09:02:11.750Z,12.37
2019-04-04T09:04:44.036Z,10.77
2019-04-04T09:07:16.269Z,11.47
2019-04-04T09:09:48.664Z,14.73
2019-04-04T09:12:22.129Z,10.40
2019-04-04T09:14:54.687Z,12.53
2019-04-04T09:17:26.939Z,10.93
2019-04-04T09:19:59.327Z,9.80
2019-04-04T09:22:31.619Z,10.60
2019-04-04T09:25:04.171Z,13.27
2019-04-04T09:27:36.549Z,12.80
2019-04-04T09:30:08.888Z,11.23
2019-04-04T09:32:42.326Z,10.87
2019-04-04T09:35:15.432Z,10.73
2019-04-04T09:37:52.993Z,12.17
2019-04-04T09:40:28.016Z,12.03
2019-04-04T09:43:00.601Z,12.50
2019-04-04T09:45:32.832Z,12.30
2019-04-04T09:48:05.390Z,10.70
2019-04-04T09:50:39.229Z,13.30
2019-04-04T09:53:11.538Z,14.77
2019-04-04T09:55:43.776Z,11.27
2019-04-04T09:58:16.096Z,10.20
2019-04-04T10:00:48.585Z,9.67
2019-04-04T10:03:20.938Z,11.27
2019-04-04T10:05:53.240Z,12.47
2019-04-04T10:08:25.690Z,9.30
2019-04-04T10:10:57.884Z,9.43
2019-04-04T10:13:30.176Z,10.73
2019-04-04T10:16:02.447Z,11.23
2019-04-04T10:18:34.951Z,10.33
2019-04-04T10:21:12.030Z,7.97
2019-04-04T10:23:41.201Z,9.67
2019-04-04T10:26:13.522Z,9.50
2019-04-04T10:28:45.806Z,9.60
2019-04-04T10:31:18.172Z,9.87
2019-04-04T10:33:50.441Z,9.17
2019-04-04T10:36:22.689Z,9.37
2019-04-04T10:38:54.979Z,10.10
2019-04-04T10:41:27.247Z,10.33
2019-04-04T10:43:59.472Z,9.03
2019-04-04T10:46:31.769Z,11.13
2019-04-04T10:49:04.102Z,9.20
2019-04-04T10:51:36.364Z,9.70
2019-04-04T10:54:09.662Z,11.50
2019-04-04T10:56:42.184Z,10.80
2019-04-04T10:59:15.556Z,9.97
2019-04-04T11:01:47.787Z,10.83
2019-04-04T11:04:20.077Z,10.67
2019-04-04T11:06:52.419Z,13.13
2019-04-04T11:09:24.891Z,8.93
2019-04-04T11:11:57.160Z,9.27
2019-04-04T11:14:29.474Z,8.27
2019-04-04T11:17:01.827Z,11.37
2019-04-04T11:19:34.490Z,10.43
2019-04-04T11:22:07.786Z,9.33
2019-04-04T11:24:40.585Z,7.57
2019-04-04T11:27:12.937Z,10.07
2019-04-04T11:29:45.148Z,10.27
2019-04-04T11:32:17.416Z,8.27
2019-04-04T11:34:53.493Z,9.10
2019-04-04T11:37:24.054Z,12.90
2019-04-04T11:39:56.458Z,8.83
2019-04-04T11:42:28.829Z,8.47
2019-04-04T11:45:01.027Z,9.00
2019-04-04T11:47:34.561Z,10.77
2019-04-04T11:50:06.939Z,9.70
2019-04-04T11:52:39.200Z,9.57
2019-04-04T11:55:11.464Z,10.80
2019-04-04T11:57:43.753Z,7.53
2019-04-04T12:00:16.243Z,8.70
2019-04-04T12:02:48.520Z,10.93
2019-04-04T12:05:20.780Z,10.03
2019-04-04T12:07:53.066Z,8.63
2019-04-04T12:10:27.290Z,9.73
2019-04-04T12:13:00.591Z,12.47
2019-04-04T12:15:33.431Z,9.67
2019-04-04T12:18:05.888Z,9.07
2019-04-04T12:20:39.228Z,8.37
2019-04-04T12:23:11.714Z,6.93
2019-04-04T12:25:44.124Z,10.90
2019-04-04T12:28:16.710Z,7.37
2019-04-04T12:30:49.003Z,7.37
2019-04-04T12:33:21.291Z,8.60
2019-04-04T12:35:53.761Z,8.90
2019-04-04T12:38:26.041Z,9.37
2019-04-04T12:40:58.316Z,8.33
2019-04-04T12:43:30.610Z,6.40
2019-04-04T12:46:03.048Z,7.83
2019-04-04T12:48:35.613Z,6.57
2019-04-04T12:51:07.912Z,9.73
2019-04-04T12:53:41.243Z,8.63
2019-04-04T12:56:13.716Z,8.87
2019-04-04T12:58:45.953Z,8.67
2019-04-04T13:01:21.116Z,7.27
2019-04-04T13:03:52.512Z,7.80
2019-04-04T13:06:25.953Z,10.77
2019-04-04T13:08:58.337Z,9.07
2019-04-04T13:11:32.168Z,8.83
2019-04-04T13:14:06.110Z,7.67
2019-04-04T13:16:38.309Z,10.53
2019-04-04T13:19:12.603Z,9.67
2019-04-04T13:21:44.961Z,8.83
2019-04-04T13:24:17.231Z,8.33
2019-04-04T13:26:52.860Z,8.40
2019-04-04T13:29:25.271Z,9.23
2019-04-04T13:31:57.919Z,8.53
2019-04-04T13:34:30.236Z,8.10
2019-04-04T13:37:02.513Z,7.73
2019-04-04T13:39:34.910Z,11.80
2019-04-04T13:42:07.231Z,10.30
2019-04-04T13:44:39.737Z,6.07
2019-04-04T13:47:12.308Z,10.50
2019-04-04T13:49:45.071Z,9.07
2019-04-04T13:52:17.674Z,8.00
2019-04-04T13:54:50.999Z,7.37
2019-04-04T13:57:23.415Z,8.67
2019-04-04T13:59:55.738Z,6.93
2019-04-04T14:02:28.030Z,8.53
2019-04-04T14:05:09.724Z,5.93
2019-04-04T14:07:34.883Z,7.73
2019-04-04T14:10:08.582Z,7.57
2019-04-04T14:12:40.910Z,7.50
2019-04-04T14:15:13.222Z,6.67
2019-04-04T14:17:45.543Z,10.23
2019-04-04T14:20:17.919Z,7.33
2019-04-04T14:22:51.381Z,7.93
2019-04-04T14:25:29.533Z,7.87
2019-04-04T14:28:02.255Z,7.53
2019-04-04T14:30:34.509Z,8.53
2019-04-04T14:33:06.803Z,8.00
2019-04-04T14:35:39.521Z,7.17
2019-04-04T14:38:12.180Z,9.10
2019-04-04T14:40:44.457Z,9.63
2019-04-04T14:43:16.512Z,7.60
2019-04-04T14:45:48.801Z,11.00
2019-04-04T14:48:21.349Z,9.13
2019-04-04T14:50:54.511Z,6.87
2019-04-04T14:53:27.107Z,7.97
2019-04-04T14:55:59.794Z,11.47
2019-04-04T14:58:32.192Z,11.33
2019-04-04T15:01:04.535Z,10.07
2019-04-04T15:03:37.316Z,10.33
2019-04-04T15:06:10.257Z,11.27
2019-04-04T15:08:42.821Z,8.73
2019-04-04T15:11:23.875Z,8.13
2019-04-04T15:13:49.522Z,7.57
2019-04-04T15:16:21.936Z,11.40
2019-04-04T15:18:54.832Z,9.00
2019-04-04T15:21:27.207Z,9.50
2019-04-04T15:23:59.458Z,9.40
2019-04-04T15:26:31.709Z,7.90
2019-04-04T15:29:04.196Z,9.23
2019-04-04T15:31:37.658Z,9.07
2019-04-04T15:34:10.118Z,9.37
2019-04-04T15:36:42.425Z,8.20
2019-04-04T15:39:15.948Z,9.27
2019-04-04T15:41:48.703Z,10.97
2019-04-04T15:44:20.798Z,9.90
2019-04-04T15:46:53.318Z,9.67
2019-04-04T15:49:25.561Z,8.83
2019-04-04T15:51:59.590Z,9.03
2019-04-04T15:54:31.915Z,8.93
2019-04-04T15:57:04.187Z,8.90
2019-04-04T15:59:36.561Z,9.67
2019-04-04T16:02:09.190Z,12.33
2019-04-04T16:04:41.463Z,12.67
2019-04-04T16:07:14.152Z,11.07
2019-04-04T16:09:47.213Z,13.60
2019-04-04T16:12:19.873Z,10.43
2019-04-04T16:14:52.297Z,10.70
2019-04-04T16:17:24.710Z,9.60
2019-04-04T16:19:58.071Z,11.57
2019-04-04T16:22:30.612Z,9.07
2019-04-04T16:25:03.155Z,10.00
2019-04-04T16:27:35.420Z,11.10
2019-04-04T16:30:08.386Z,9.17
2019-04-04T16:32:41.813Z,9.80
2019-04-04T16:35:14.053Z,10.70
2019-04-04T16:37:46.522Z,9.70
2019-04-04T16:40:18.847Z,8.30
2019-04-04T16:42:51.291Z,8.33
2019-04-04T16:45:23.637Z,8.77
2019-04-04T16:47:55.864Z,10.03
2019-04-04T16:50:28.211Z,9.37
2019-04-04T16:53:00.586Z,8.53
2019-04-04T16:55:32.930Z,10.30
2019-04-04T16:58:05.222Z,9.30
2019-04-04T17:00:37.759Z,9.00
2019-04-04T17:03:10.023Z,12.70
2019-04-04T17:05:42.269Z,8.27
2019-04-04T17:08:14.610Z,10.03
2019-04-04T17:10:46.965Z,9.33
2019-04-04T17:13:19.201Z,11.30
2019-04-04T17:15:51.487Z,9.43
2019-04-04T17:18:23.802Z,11.10
2019-04-04T17:20:56.032Z,21.10
2019-04-04T17:23:28.336Z,11.33
2019-04-04T17:26:00.882Z,12.33
2019-04-04T17:28:33.321Z,11.10
2019-04-04T17:31:07.723Z,10.10
2019-04-04T17:33:40.042Z,10.53
2019-04-04T17:36:12.400Z,14.57
2019-04-04T17:38:45.291Z,11.17
2019-04-04T17:41:17.593Z,10.43
2019-04-04T17:43:49.905Z,11.03
2019-04-04T17:46:22.277Z,11.60
2019-04-04T17:48:54.397Z,12.57
2019-04-04T17:51:27.401Z,12.67
2019-04-04T17:54:00.394Z,11.60
2019-04-04T17:56:33.092Z,16.73
2019-04-04T17:59:05.434Z,18.00
2019-04-04T18:01:37.666Z,18.27
2019-04-04T18:04:10.076Z,21.07
2019-04-04T18:06:43.444Z,20.43
2019-04-04T18:09:15.945Z,20.60
2019-04-04T18:11:48.310Z,22.73
2019-04-04T18:14:22.161Z,20.63
2019-04-04T18:16:54.528Z,25.37
2019-04-04T18:19:27.027Z,25.43
2019-04-04T18:22:00.151Z,25.03
2019-04-04T18:24:32.468Z,25.90
2019-04-04T18:27:04.991Z,27.10
2019-04-04T18:29:38.306Z,25.47
2019-04-04T18:32:11.058Z,27.70
2019-04-04T18:34:45.232Z,27.30
2019-04-04T18:37:17.819Z,27.00
2019-04-04T18:39:50.047Z,23.93
2019-04-04T18:42:23.323Z,23.20
2019-04-04T18:44:55.572Z,23.50
2019-04-04T18:47:27.950Z,24.93
2019-04-04T18:50:00.257Z,25.43
2019-04-04T18:52:32.960Z,22.57
2019-04-04T18:55:05.315Z,22.00
2019-04-04T18:57:37.632Z,22.63
2019-04-04T19:00:10.096Z,20.83
2019-04-04T19:02:42.442Z,21.67
2019-04-04T19:05:14.853Z,20.53
2019-04-04T19:07:48.163Z,19.03
2019-04-04T19:10:20.639Z,23.23
2019-04-04T19:13:04.855Z,21.23
2019-04-04T19:15:27.186Z,18.03
2019-04-04T19:17:59.575Z,20.23
2019-04-04T19:20:33.510Z,21.20
2019-04-04T19:23:06.370Z,22.27
2019-04-04T19:25:38.715Z,20.93
2019-04-04T19:28:11.117Z,19.53
2019-04-04T19:30:43.493Z,19.37
2019-04-04T19:33:16.274Z,22.07
2019-04-04T19:35:48.491Z,20.10
2019-04-04T19:38:20.937Z,18.50
2019-04-04T19:40:53.236Z,20.77
2019-04-04T19:43:25.481Z,21.27
2019-04-04T19:45:57.777Z,19.27
2019-04-04T19:48:30.034Z,22.20
2019-04-04T19:51:02.315Z,20.50
2019-04-04T19:53:35.903Z,20.97
2019-04-04T19:56:08.138Z,21.63
2019-04-04T19:58:40.482Z,22.80
2019-04-04T20:01:12.803Z,23.33
2019-04-04T20:03:44.987Z,27.40
2019-04-04T20:06:17.380Z,22.20
2019-04-04T20:08:53.305Z,21.93
2019-04-04T20:11:23.824Z,23.43
2019-04-04T20:13:56.032Z,23.37
2019-04-04T20:16:30.459Z,24.83
2019-04-04T20:19:02.684Z,30.70
2019-04-04T20:21:37.230Z,24.40
2019-04-04T20:24:09.444Z,24.77
2019-04-04T20:26:41.992Z,22.57
2019-04-04T20:29:14.144Z,25.80
2019-04-04T20:31:46.512Z,24.47
2019-04-04T20:34:20.840Z,27.13
2019-04-04T20:36:53.147Z,25.60
2019-04-04T20:39:25.384Z,25.80
2019-04-04T20:41:57.642Z,24.80
2019-04-04T20:44:30.006Z,26.23
2019-04-04T20:47:02.471Z,26.17
2019-04-04T20:49:34.757Z,31.07
2019-04-04T20:52:07.098Z,27.67
2019-04-04T20:54:39.497Z,26.43
2019-04-04T20:57:11.720Z,29.33
2019-04-04T20:59:44.103Z,29.87
2019-04-04T21:02:16.370Z,28.10
2019-04-04T21:04:48.704Z,31.13
2019-04-04T21:07:20.972Z,27.60
2019-04-04T21:09:53.387Z,33.43
2019-04-04T21:12:25.823Z,31.17
2019-04-04T21:14:58.099Z,34.47
2019-04-04T21:17:30.446Z,33.67
2019-04-04T21:20:02.838Z,32.70
2019-04-04T21:22:36.966Z,35.07
2019-04-04T21:25:09.966Z,32.73
2019-04-04T21:27:42.214Z,35.27
2019-04-04T21:30:14.471Z,34.03
2019-04-04T21:32:46.721Z,34.77
2019-04-04T21:35:19.451Z,33.70
2019-04-04T21:37:51.694Z,32.27
2019-04-04T21:40:24.069Z,33.07
2019-04-04T21:42:56.326Z,35.57
2019-04-04T21:45:28.564Z,32.77
2019-04-04T21:48:01.107Z,40.33
2019-04-04T21:50:33.454Z,32.23
2019-04-04T21:53:05.721Z,35.93
2019-04-04T21:55:38.083Z,37.63
2019-04-04T21:58:10.436Z,35.97
2019-04-04T22:00:42.873Z,38.73
2019-04-04T22:03:16.830Z,37.40
2019-04-04T22:05:49.268Z,33.13
2019-04-04T22:08:21.613Z,38.23
2019-04-04T22:10:53.917Z,36.07
2019-04-04T22:13:26.314Z,36.03
2019-04-04T22:15:58.626Z,36.37
2019-04-04T22:18:31.118Z,38.93
2019-04-04T22:21:03.421Z,39.77
2019-04-04T22:23:35.910Z,35.83
2019-04-04T22:26:08.220Z,38.17
2019-04-04T22:28:40.480Z,36.57
2019-04-04T22:31:12.852Z,40.70
2019-04-04T22:33:46.170Z,37.83
2019-04-04T22:36:18.645Z,39.30
2019-04-04T22:38:51.512Z,37.77
2019-04-04T22:41:24.081Z,38.37
2019-04-04T22:44:03.325Z,40.07
2019-04-04T22:46:30.518Z,40.57
2019-04-04T22:49:02.772Z,39.37
2019-04-04T22:51:35.048Z,42.33
2019-04-04T22:54:09.657Z,40.97
2019-04-04T22:56:41.910Z,38.43
2019-04-04T22:59:14.180Z,40.97
2019-04-04T23:01:46.483Z,41.30
2019-04-04T23:04:18.801Z,38.70
2019-04-04T23:06:51.184Z,38.60
2019-04-04T23:09:23.583Z,37.47
2019-04-04T23:11:56.057Z,38.73
2019-04-04T23:14:28.722Z,36.90
2019-04-04T23:17:01.176Z,37.17
2019-04-04T23:19:33.776Z,35.13
2019-04-04T23:22:06.342Z,33.80
2019-04-04T23:24:38.546Z,34.43
2019-04-04T23:27:10.891Z,37.10
2019-04-04T23:29:43.183Z,35.03
2019-04-04T23:32:15.504Z,33.60
2019-04-04T23:34:47.798Z,32.33
2019-04-04T23:37:20.022Z,31.57
2019-04-04T23:39:52.325Z,29.70
2019-04-04T23:42:24.889Z,31.33
2019-04-04T23:45:01.065Z,33.10
2019-04-04T23:47:41.946Z,29.17
2019-04-04T23:50:05.139Z,29.60
2019-04-04T23:52:38.535Z,25.77
2019-04-04T23:55:10.781Z,27.93
2019-04-04T23:57:42.994Z,27.13
